sensor_id;sensor_type;location;lat;lon;timestamp;pressure;altitude;pressure_sealevel;temperature;humidity
22241;BME280;11289;52.524;13.694;2022-07-06T00:00:31;101390.41;;;18.81;46.46
22241;BME280;11289;52.524;13.694;2022-07-06T00:02:57;101387.59;;;18.81;46.57
22241;BME280;11289;52.524;13.694;2022-07-06T00:05:22;101387.59;;;18.81;46.86
22241;BME280;11289;52.524;13.694;2022-07-06T00:07:47;101399.59;;;18.78;47.07
22241;BME280;11289;52.524;13.694;2022-07-06T00:10:13;101380.97;;;18.73;47.04
22241;BME280;11289;52.524;13.694;2022-07-06T00:12:38;101389.72;;;18.68;46.92
22241;BME280;11289;52.524;13.694;2022-07-06T00:15:04;101401.03;;;18.72;47.22
22241;BME280;11289;52.524;13.694;2022-07-06T00:17:30;101387.28;;;18.67;47.36
22241;BME280;11289;52.524;13.694;2022-07-06T00:19:55;101391.22;;;18.62;47.81
22241;BME280;11289;52.524;13.694;2022-07-06T00:22:21;101393.28;;;18.65;47.62
22241;BME280;11289;52.524;13.694;2022-07-06T00:24:46;101389.50;;;18.57;47.70
22241;BME280;11289;52.524;13.694;2022-07-06T00:27:11;101397.47;;;18.55;47.70
22241;BME280;11289;52.524;13.694;2022-07-06T00:29:37;101384.53;;;18.51;48.08
22241;BME280;11289;52.524;13.694;2022-07-06T00:32:03;101389.78;;;18.52;48.51
22241;BME280;11289;52.524;13.694;2022-07-06T00:34:28;101386.34;;;18.43;48.23
22241;BME280;11289;52.524;13.694;2022-07-06T00:36:53;101390.13;;;18.51;48.17
22241;BME280;11289;52.524;13.694;2022-07-06T00:39:19;101390.03;;;18.47;48.67
22241;BME280;11289;52.524;13.694;2022-07-06T00:41:45;101390.72;;;18.40;48.49
22241;BME280;11289;52.524;13.694;2022-07-06T00:44:11;101390.63;;;18.37;49.52
22241;BME280;11289;52.524;13.694;2022-07-06T00:46:36;101388.72;;;18.25;49.24
22241;BME280;11289;52.524;13.694;2022-07-06T00:49:02;101399.59;;;18.26;49.75
22241;BME280;11289;52.524;13.694;2022-07-06T00:51:29;101392.56;;;18.17;49.43
22241;BME280;11289;52.524;13.694;2022-07-06T00:53:58;101371.28;;;18.00;49.66
22241;BME280;11289;52.524;13.694;2022-07-06T00:56:25;101380.63;;;18.04;49.57
22241;BME280;11289;52.524;13.694;2022-07-06T00:58:51;101400.47;;;18.11;49.61
22241;BME280;11289;52.524;13.694;2022-07-06T01:01:16;101380.44;;;17.97;49.84
22241;BME280;11289;52.524;13.694;2022-07-06T01:03:42;101377.41;;;17.89;50.28
22241;BME280;11289;52.524;13.694;2022-07-06T01:06:07;101369.97;;;17.81;50.54
22241;BME280;11289;52.524;13.694;2022-07-06T01:08:34;101390.28;;;17.90;50.11
22241;BME280;11289;52.524;13.694;2022-07-06T01:10:59;101396.25;;;17.89;50.76
22241;BME280;11289;52.524;13.694;2022-07-06T01:13:25;101391.28;;;17.82;50.77
22241;BME280;11289;52.524;13.694;2022-07-06T01:15:51;101396.53;;;17.84;51.06
22241;BME280;11289;52.524;13.694;2022-07-06T01:18:17;101397.25;;;17.81;51.14
22241;BME280;11289;52.524;13.694;2022-07-06T01:20:42;101393.91;;;17.75;51.08
22241;BME280;11289;52.524;13.694;2022-07-06T01:23:07;101395.78;;;17.71;51.16
22241;BME280;11289;52.524;13.694;2022-07-06T01:25:33;101396.16;;;17.69;51.37
22241;BME280;11289;52.524;13.694;2022-07-06T01:27:58;101400.06;;;17.65;51.23
22241;BME280;11289;52.524;13.694;2022-07-06T01:30:24;101382.09;;;17.53;51.46
22241;BME280;11289;52.524;13.694;2022-07-06T01:32:50;101406.41;;;17.62;51.68
22241;BME280;11289;52.524;13.694;2022-07-06T01:35:16;101408.72;;;17.60;51.87
22241;BME280;11289;52.524;13.694;2022-07-06T01:37:42;101387.59;;;17.50;51.87
22241;BME280;11289;52.524;13.694;2022-07-06T01:40:10;101401.28;;;17.51;51.89
22241;BME280;11289;52.524;13.694;2022-07-06T01:42:36;101403.66;;;17.49;51.79
22241;BME280;11289;52.524;13.694;2022-07-06T01:45:04;101381.72;;;17.39;51.73
22241;BME280;11289;52.524;13.694;2022-07-06T01:47:29;101381.50;;;17.32;51.75
22241;BME280;11289;52.524;13.694;2022-07-06T01:49:58;101403.09;;;17.44;51.88
22241;BME280;11289;52.524;13.694;2022-07-06T01:52:25;101402.72;;;17.45;52.14
22241;BME280;11289;52.524;13.694;2022-07-06T01:54:50;101391.56;;;17.33;52.15
22241;BME280;11289;52.524;13.694;2022-07-06T01:57:15;101397.44;;;17.28;52.40
22241;BME280;11289;52.524;13.694;2022-07-06T01:59:41;101394.75;;;17.31;52.47
22241;BME280;11289;52.524;13.694;2022-07-06T02:02:06;101381.31;;;17.25;53.08
22241;BME280;11289;52.524;13.694;2022-07-06T02:04:32;101393.25;;;17.21;52.79
22241;BME280;11289;52.524;13.694;2022-07-06T02:06:57;101395.13;;;17.17;52.76
22241;BME280;11289;52.524;13.694;2022-07-06T02:09:22;101397.22;;;17.20;52.76
22241;BME280;11289;52.524;13.694;2022-07-06T02:11:48;101401.31;;;17.23;52.51
22241;BME280;11289;52.524;13.694;2022-07-06T02:14:13;101396.25;;;17.29;52.55
22241;BME280;11289;52.524;13.694;2022-07-06T02:16:39;101395.78;;;17.27;52.80
22241;BME280;11289;52.524;13.694;2022-07-06T02:19:05;101403.88;;;17.28;52.78
22241;BME280;11289;52.524;13.694;2022-07-06T02:21:30;101393.25;;;17.21;52.75
22241;BME280;11289;52.524;13.694;2022-07-06T02:23:56;101418.72;;;17.29;52.99
22241;BME280;11289;52.524;13.694;2022-07-06T02:26:21;101416.34;;;17.31;52.65
22241;BME280;11289;52.524;13.694;2022-07-06T02:28:46;101423.97;;;17.30;52.74
22241;BME280;11289;52.524;13.694;2022-07-06T02:31:13;101428.66;;;17.26;52.82
22241;BME280;11289;52.524;13.694;2022-07-06T02:33:39;101420.25;;;17.26;52.81
22241;BME280;11289;52.524;13.694;2022-07-06T02:36:05;101415.50;;;17.14;53.09
22241;BME280;11289;52.524;13.694;2022-07-06T02:38:30;101422.28;;;17.13;52.87
22241;BME280;11289;52.524;13.694;2022-07-06T02:40:58;101438.75;;;17.15;53.43
22241;BME280;11289;52.524;13.694;2022-07-06T02:43:24;101429.56;;;17.02;53.24
22241;BME280;11289;52.524;13.694;2022-07-06T02:45:49;101447.44;;;17.10;53.18
22241;BME280;11289;52.524;13.694;2022-07-06T02:48:15;101450.59;;;17.08;53.50
22241;BME280;11289;52.524;13.694;2022-07-06T02:50:43;101458.09;;;17.04;55.30
22241;BME280;11289;52.524;13.694;2022-07-06T02:53:09;101457.38;;;17.07;56.73
22241;BME280;11289;52.524;13.694;2022-07-06T02:55:36;101457.81;;;17.09;58.39
22241;BME280;11289;52.524;13.694;2022-07-06T02:58:05;101456.22;;;17.08;58.09
22241;BME280;11289;52.524;13.694;2022-07-06T03:00:31;101455.88;;;16.97;58.04
22241;BME280;11289;52.524;13.694;2022-07-06T03:02:57;101447.22;;;16.90;58.81
22241;BME280;11289;52.524;13.694;2022-07-06T03:05:23;101464.41;;;16.88;59.43
22241;BME280;11289;52.524;13.694;2022-07-06T03:07:48;101461.84;;;16.83;59.42
22241;BME280;11289;52.524;13.694;2022-07-06T03:10:14;101463.50;;;16.72;60.17
22241;BME280;11289;52.524;13.694;2022-07-06T03:12:41;101466.06;;;16.65;61.83
22241;BME280;11289;52.524;13.694;2022-07-06T03:15:07;101465.63;;;16.63;62.42
22241;BME280;11289;52.524;13.694;2022-07-06T03:17:35;101469.69;;;16.65;62.60
22241;BME280;11289;52.524;13.694;2022-07-06T03:20:00;101453.91;;;16.61;63.64
22241;BME280;11289;52.524;13.694;2022-07-06T03:22:26;101448.22;;;16.57;64.25
22241;BME280;11289;52.524;13.694;2022-07-06T03:24:51;101453.47;;;16.59;64.70
22241;BME280;11289;52.524;13.694;2022-07-06T03:27:17;101456.94;;;16.68;63.90
22241;BME280;11289;52.524;13.694;2022-07-06T03:29:43;101448.09;;;16.53;63.83
22241;BME280;11289;52.524;13.694;2022-07-06T03:32:08;101469.31;;;16.67;64.62
22241;BME280;11289;52.524;13.694;2022-07-06T03:34:33;101463.72;;;16.67;65.22
22241;BME280;11289;52.524;13.694;2022-07-06T03:36:59;101473.91;;;16.71;66.82
22241;BME280;11289;52.524;13.694;2022-07-06T03:39:24;101462.56;;;16.68;67.77
22241;BME280;11289;52.524;13.694;2022-07-06T03:41:50;101468.28;;;16.71;68.17
22241;BME280;11289;52.524;13.694;2022-07-06T03:44:15;101472.72;;;16.73;67.65
22241;BME280;11289;52.524;13.694;2022-07-06T03:46:40;101471.09;;;16.71;68.25
22241;BME280;11289;52.524;13.694;2022-07-06T03:49:06;101457.31;;;16.66;68.93
22241;BME280;11289;52.524;13.694;2022-07-06T03:51:31;101461.41;;;16.69;69.43
22241;BME280;11289;52.524;13.694;2022-07-06T03:53:57;101466.28;;;16.72;69.00
22241;BME280;11289;52.524;13.694;2022-07-06T03:56:22;101458.47;;;16.65;69.36
22241;BME280;11289;52.524;13.694;2022-07-06T03:58:57;101474.34;;;16.74;70.38
22241;BME280;11289;52.524;13.694;2022-07-06T04:01:23;101468.75;;;16.74;70.03
22241;BME280;11289;52.524;13.694;2022-07-06T04:03:49;101462.81;;;16.63;68.93
22241;BME280;11289;52.524;13.694;2022-07-06T04:06:14;101464.19;;;16.57;70.70
22241;BME280;11289;52.524;13.694;2022-07-06T04:08:40;101467.47;;;16.59;70.36
22241;BME280;11289;52.524;13.694;2022-07-06T04:11:05;101456.75;;;16.48;70.47
22241;BME280;11289;52.524;13.694;2022-07-06T04:13:30;101472.16;;;16.54;70.01
22241;BME280;11289;52.524;13.694;2022-07-06T04:15:56;101462.00;;;16.50;70.29
22241;BME280;11289;52.524;13.694;2022-07-06T04:18:21;101472.84;;;16.51;70.19
22241;BME280;11289;52.524;13.694;2022-07-06T04:20:47;101464.09;;;16.53;71.58
22241;BME280;11289;52.524;13.694;2022-07-06T04:23:12;101464.91;;;16.53;71.11
22241;BME280;11289;52.524;13.694;2022-07-06T04:25:38;101464.91;;;16.53;70.83
22241;BME280;11289;52.524;13.694;2022-07-06T04:28:03;101469.22;;;16.51;71.74
22241;BME280;11289;52.524;13.694;2022-07-06T04:30:29;101469.69;;;16.53;71.39
22241;BME280;11289;52.524;13.694;2022-07-06T04:32:54;101469.34;;;16.54;71.08
22241;BME280;11289;52.524;13.694;2022-07-06T04:35:20;101477.06;;;16.58;71.18
22241;BME280;11289;52.524;13.694;2022-07-06T04:37:46;101468.19;;;16.56;70.47
22241;BME280;11289;52.524;13.694;2022-07-06T04:40:12;101469.09;;;16.60;71.41
22241;BME280;11289;52.524;13.694;2022-07-06T04:42:38;101468.75;;;16.61;71.32
22241;BME280;11289;52.524;13.694;2022-07-06T04:45:04;101477.16;;;16.74;70.69
22241;BME280;11289;52.524;13.694;2022-07-06T04:47:29;101473.28;;;16.78;70.16
22241;BME280;11289;52.524;13.694;2022-07-06T04:49:55;101469.06;;;16.84;69.86
22241;BME280;11289;52.524;13.694;2022-07-06T04:52:20;101467.81;;;16.94;69.71
22241;BME280;11289;52.524;13.694;2022-07-06T04:54:46;101467.31;;;17.04;69.30
22241;BME280;11289;52.524;13.694;2022-07-06T04:57:11;101458.09;;;17.04;69.01
22241;BME280;11289;52.524;13.694;2022-07-06T04:59:36;101464.50;;;17.04;68.41
22241;BME280;11289;52.524;13.694;2022-07-06T05:02:02;101452.63;;;16.95;67.50
22241;BME280;11289;52.524;13.694;2022-07-06T05:04:27;101470.25;;;16.96;67.48
22241;BME280;11289;52.524;13.694;2022-07-06T05:06:53;101468.00;;;17.01;68.08
22241;BME280;11289;52.524;13.694;2022-07-06T05:09:18;101472.06;;;17.16;67.80
22241;BME280;11289;52.524;13.694;2022-07-06T05:11:44;101470.66;;;17.22;66.90
22241;BME280;11289;52.524;13.694;2022-07-06T05:14:10;101471.69;;;17.30;67.29
22241;BME280;11289;52.524;13.694;2022-07-06T05:16:35;101481.09;;;17.38;66.23
22241;BME280;11289;52.524;13.694;2022-07-06T05:19:01;101464.91;;;17.31;65.19
22241;BME280;11289;52.524;13.694;2022-07-06T05:21:26;101473.41;;;17.35;65.22
22241;BME280;11289;52.524;13.694;2022-07-06T05:23:52;101481.09;;;17.38;64.90
22241;BME280;11289;52.524;13.694;2022-07-06T05:26:17;101480.03;;;17.43;65.34
22241;BME280;11289;52.524;13.694;2022-07-06T05:28:43;101493.91;;;17.51;64.89
22241;BME280;11289;52.524;13.694;2022-07-06T05:31:08;101493.66;;;17.56;64.53
22241;BME280;11289;52.524;13.694;2022-07-06T05:33:34;101491.22;;;17.55;62.95
22241;BME280;11289;52.524;13.694;2022-07-06T05:36:00;101471.75;;;17.34;63.09
22241;BME280;11289;52.524;13.694;2022-07-06T05:38:25;101490.25;;;17.35;63.50
22241;BME280;11289;52.524;13.694;2022-07-06T05:40:51;101486.00;;;17.41;64.72
22241;BME280;11289;52.524;13.694;2022-07-06T05:43:17;101487.84;;;17.49;64.28
22241;BME280;11289;52.524;13.694;2022-07-06T05:45:43;101481.72;;;17.60;63.95
22241;BME280;11289;52.524;13.694;2022-07-06T05:48:08;101474.66;;;17.66;63.55
22241;BME280;11289;52.524;13.694;2022-07-06T05:50:53;101470.44;;;17.72;61.33
22241;BME280;11289;52.524;13.694;2022-07-06T05:53:18;101478.53;;;17.89;62.45
22241;BME280;11289;52.524;13.694;2022-07-06T05:55:44;101474.13;;;18.04;62.52
22241;BME280;11289;52.524;13.694;2022-07-06T05:58:10;101465.44;;;18.25;61.11
22241;BME280;11289;52.524;13.694;2022-07-06T06:00:35;101459.81;;;18.41;59.03
22241;BME280;11289;52.524;13.694;2022-07-06T06:03:01;101459.44;;;18.59;58.34
22241;BME280;11289;52.524;13.694;2022-07-06T06:05:26;101476.69;;;18.93;59.21
22241;BME280;11289;52.524;13.694;2022-07-06T06:07:52;101470.50;;;19.03;57.09
22241;BME280;11289;52.524;13.694;2022-07-06T06:10:18;101475.03;;;19.27;57.32
22241;BME280;11289;52.524;13.694;2022-07-06T06:12:44;101465.69;;;19.43;55.59
22241;BME280;11289;52.524;13.694;2022-07-06T06:15:11;101476.09;;;19.62;55.25
22241;BME280;11289;52.524;13.694;2022-07-06T06:17:37;101477.81;;;19.86;54.30
22241;BME280;11289;52.524;13.694;2022-07-06T06:20:09;101466.31;;;19.95;53.44
22241;BME280;11289;52.524;13.694;2022-07-06T06:22:52;101473.69;;;20.26;52.85
22241;BME280;11289;52.524;13.694;2022-07-06T06:25:20;101475.91;;;20.40;52.82
22241;BME280;11289;52.524;13.694;2022-07-06T06:27:45;101468.03;;;20.49;51.47
22241;BME280;11289;52.524;13.694;2022-07-06T06:30:12;101466.75;;;20.70;50.26
22241;BME280;11289;52.524;13.694;2022-07-06T06:32:38;101464.53;;;20.83;49.84
22241;BME280;11289;52.524;13.694;2022-07-06T06:35:04;101470.09;;;21.06;50.06
22241;BME280;11289;52.524;13.694;2022-07-06T06:37:30;101464.09;;;21.11;49.38
22241;BME280;11289;52.524;13.694;2022-07-06T06:39:56;101473.91;;;21.21;48.08
22241;BME280;11289;52.524;13.694;2022-07-06T06:42:21;101464.75;;;21.31;48.43
22241;BME280;11289;52.524;13.694;2022-07-06T06:44:46;101459.69;;;21.48;48.29
22241;BME280;11289;52.524;13.694;2022-07-06T06:47:12;101467.22;;;21.67;47.71
22241;BME280;11289;52.524;13.694;2022-07-06T06:49:37;101471.81;;;21.82;44.92
22241;BME280;11289;52.524;13.694;2022-07-06T06:52:03;101468.28;;;21.92;46.44
22241;BME280;11289;52.524;13.694;2022-07-06T06:54:28;101458.00;;;22.15;45.45
22241;BME280;11289;52.524;13.694;2022-07-06T06:56:54;101467.06;;;22.35;44.38
22241;BME280;11289;52.524;13.694;2022-07-06T06:59:19;101479.66;;;22.41;44.52
22241;BME280;11289;52.524;13.694;2022-07-06T07:01:45;101466.31;;;22.41;44.31
22241;BME280;11289;52.524;13.694;2022-07-06T07:04:10;101453.94;;;22.60;44.56
22241;BME280;11289;52.524;13.694;2022-07-06T07:06:37;101464.00;;;22.54;43.00
22241;BME280;11289;52.524;13.694;2022-07-06T07:09:02;101482.34;;;22.30;44.59
22241;BME280;11289;52.524;13.694;2022-07-06T07:11:27;101472.03;;;22.49;44.02
22241;BME280;11289;52.524;13.694;2022-07-06T07:13:53;101453.53;;;22.62;42.25
22241;BME280;11289;52.524;13.694;2022-07-06T07:16:18;101466.94;;;22.72;43.62
22241;BME280;11289;52.524;13.694;2022-07-06T07:18:44;101468.25;;;22.93;42.89
22241;BME280;11289;52.524;13.694;2022-07-06T07:21:09;101454.69;;;23.20;41.76
22241;BME280;11289;52.524;13.694;2022-07-06T07:23:35;101466.94;;;23.46;40.88
22241;BME280;11289;52.524;13.694;2022-07-06T07:26:00;101462.88;;;23.47;40.86
22241;BME280;11289;52.524;13.694;2022-07-06T07:28:26;101462.50;;;23.56;40.35
22241;BME280;11289;52.524;13.694;2022-07-06T07:30:51;101470.31;;;23.98;40.56
22241;BME280;11289;52.524;13.694;2022-07-06T07:33:17;101464.63;;;24.24;40.17
22241;BME280;11289;52.524;13.694;2022-07-06T07:35:42;101473.97;;;24.53;39.26
22241;BME280;11289;52.524;13.694;2022-07-06T07:38:08;101469.50;;;24.45;38.06
22241;BME280;11289;52.524;13.694;2022-07-06T07:40:33;101474.38;;;24.59;38.19
22241;BME280;11289;52.524;13.694;2022-07-06T07:43:00;101473.56;;;24.76;37.12
22241;BME280;11289;52.524;13.694;2022-07-06T07:45:25;101477.63;;;24.68;37.55
22241;BME280;11289;52.524;13.694;2022-07-06T07:47:51;101463.00;;;24.55;37.58
22241;BME280;11289;52.524;13.694;2022-07-06T07:50:16;101462.22;;;24.47;37.78
22241;BME280;11289;52.524;13.694;2022-07-06T07:52:43;101474.78;;;24.10;38.23
22241;BME280;11289;52.524;13.694;2022-07-06T07:55:08;101471.03;;;23.74;38.75
22241;BME280;11289;52.524;13.694;2022-07-06T07:57:34;101479.50;;;23.56;39.90
22241;BME280;11289;52.524;13.694;2022-07-06T07:59:59;101482.19;;;23.23;40.00
22241;BME280;11289;52.524;13.694;2022-07-06T08:02:25;101486.22;;;23.19;39.04
22241;BME280;11289;52.524;13.694;2022-07-06T08:04:50;101490.16;;;23.03;39.00
22241;BME280;11289;52.524;13.694;2022-07-06T08:07:16;101480.63;;;22.67;38.30
22241;BME280;11289;52.524;13.694;2022-07-06T08:09:41;101487.38;;;22.48;38.42
22241;BME280;11289;52.524;13.694;2022-07-06T08:12:07;101486.63;;;22.58;38.00
22241;BME280;11289;52.524;13.694;2022-07-06T08:14:32;101479.53;;;22.86;39.11
22241;BME280;11289;52.524;13.694;2022-07-06T08:16:58;101475.03;;;23.55;38.45
22241;BME280;11289;52.524;13.694;2022-07-06T08:19:23;101487.34;;;24.02;37.16
22241;BME280;11289;52.524;13.694;2022-07-06T08:21:48;101473.16;;;23.95;36.34
22241;BME280;11289;52.524;13.694;2022-07-06T08:24:14;101478.31;;;23.64;36.02
22241;BME280;11289;52.524;13.694;2022-07-06T08:26:39;101484.25;;;23.34;36.31
22241;BME280;11289;52.524;13.694;2022-07-06T08:29:05;101471.13;;;23.00;38.50
22241;BME280;11289;52.524;13.694;2022-07-06T08:31:30;101484.00;;;22.83;38.28
22241;BME280;11289;52.524;13.694;2022-07-06T08:33:56;101489.06;;;22.56;38.71
22241;BME280;11289;52.524;13.694;2022-07-06T08:36:22;101482.88;;;22.39;38.51
22241;BME280;11289;52.524;13.694;2022-07-06T08:38:47;101503.03;;;22.34;39.05
22241;BME280;11289;52.524;13.694;2022-07-06T08:41:15;101496.38;;;22.16;39.17
22241;BME280;11289;52.524;13.694;2022-07-06T08:43:41;101505.69;;;22.16;39.83
22241;BME280;11289;52.524;13.694;2022-07-06T08:46:07;101508.03;;;22.11;40.34
22241;BME280;11289;52.524;13.694;2022-07-06T08:48:38;101502.41;;;22.14;40.23
22241;BME280;11289;52.524;13.694;2022-07-06T08:51:05;101503.25;;;22.15;40.38
22241;BME280;11289;52.524;13.694;2022-07-06T08:53:31;101500.84;;;22.20;39.76
22241;BME280;11289;52.524;13.694;2022-07-06T08:55:57;101500.84;;;22.20;39.17
22241;BME280;11289;52.524;13.694;2022-07-06T08:58:24;101503.25;;;22.15;39.59
22241;BME280;11289;52.524;13.694;2022-07-06T09:00:50;101486.06;;;21.93;40.08
22241;BME280;11289;52.524;13.694;2022-07-06T09:03:16;101494.88;;;21.88;40.43
22241;BME280;11289;52.524;13.694;2022-07-06T09:05:44;101513.50;;;21.92;40.62
22241;BME280;11289;52.524;13.694;2022-07-06T09:08:11;101496.22;;;22.01;40.48
22241;BME280;11289;52.524;13.694;2022-07-06T09:10:36;101512.06;;;22.09;39.35
22241;BME280;11289;52.524;13.694;2022-07-06T09:13:04;101502.19;;;21.92;38.01
22241;BME280;11289;52.524;13.694;2022-07-06T09:15:30;101505.31;;;21.80;38.37
22241;BME280;11289;52.524;13.694;2022-07-06T09:17:56;101522.13;;;21.69;38.62
22241;BME280;11289;52.524;13.694;2022-07-06T09:20:23;101506.88;;;21.44;39.00
22241;BME280;11289;52.524;13.694;2022-07-06T09:22:49;101513.13;;;21.26;39.01
22241;BME280;11289;52.524;13.694;2022-07-06T09:25:16;101519.69;;;21.07;39.42
22241;BME280;11289;52.524;13.694;2022-07-06T09:27:44;101510.28;;;20.96;39.33
22241;BME280;11289;52.524;13.694;2022-07-06T09:30:14;101517.25;;;21.05;40.11
22241;BME280;11289;52.524;13.694;2022-07-06T09:32:42;101520.06;;;21.05;39.79
22241;BME280;11289;52.524;13.694;2022-07-06T09:35:19;101506.06;;;21.13;39.27
22241;BME280;11289;52.524;13.694;2022-07-06T09:37:45;101505.44;;;21.27;38.31
22241;BME280;11289;52.524;13.694;2022-07-06T09:40:17;101517.34;;;21.43;38.04
22241;BME280;11289;52.524;13.694;2022-07-06T09:42:44;101510.41;;;21.67;37.81
22241;BME280;11289;52.524;13.694;2022-07-06T09:45:09;101509.00;;;21.84;37.11
22241;BME280;11289;52.524;13.694;2022-07-06T09:47:35;101497.00;;;21.98;36.83
22241;BME280;11289;52.524;13.694;2022-07-06T09:50:07;101507.41;;;22.28;36.13
22241;BME280;11289;52.524;13.694;2022-07-06T09:52:35;101502.31;;;23.04;34.14
22241;BME280;11289;52.524;13.694;2022-07-06T09:55:11;101488.84;;;23.67;33.16
22241;BME280;11289;52.524;13.694;2022-07-06T09:57:52;101505.94;;;23.96;31.74
22241;BME280;11289;52.524;13.694;2022-07-06T10:00:18;101499.41;;;23.77;32.14
22241;BME280;11289;52.524;13.694;2022-07-06T10:02:44;101494.09;;;23.65;31.94
22241;BME280;11289;52.524;13.694;2022-07-06T10:05:12;101506.16;;;23.40;32.25
22241;BME280;11289;52.524;13.694;2022-07-06T10:07:38;101507.34;;;23.32;33.30
22241;BME280;11289;52.524;13.694;2022-07-06T10:10:04;101492.63;;;23.08;33.25
22241;BME280;11289;52.524;13.694;2022-07-06T10:12:30;101498.25;;;22.98;33.81
22241;BME280;11289;52.524;13.694;2022-07-06T10:14:56;101499.75;;;22.81;34.44
22241;BME280;11289;52.524;13.694;2022-07-06T10:17:22;101513.44;;;22.71;34.52
22241;BME280;11289;52.524;13.694;2022-07-06T10:19:49;101517.03;;;22.68;35.41
22241;BME280;11289;52.524;13.694;2022-07-06T10:22:15;101506.94;;;22.71;35.62
22241;BME280;11289;52.524;13.694;2022-07-06T10:24:43;101513.16;;;22.91;35.27
22241;BME280;11289;52.524;13.694;2022-07-06T10:27:09;101506.78;;;23.08;35.45
22241;BME280;11289;52.524;13.694;2022-07-06T10:29:36;101508.09;;;23.18;35.08
22241;BME280;11289;52.524;13.694;2022-07-06T10:32:02;101516.66;;;23.36;34.40
22241;BME280;11289;52.524;13.694;2022-07-06T10:34:27;101516.69;;;23.40;33.93
22241;BME280;11289;52.524;13.694;2022-07-06T10:36:53;101521.88;;;23.27;34.36
22241;BME280;11289;52.524;13.694;2022-07-06T10:39:38;101529.13;;;23.17;34.85
22241;BME280;11289;52.524;13.694;2022-07-06T10:45:08;101526.00;;;22.77;35.97
22241;BME280;11289;52.524;13.694;2022-07-06T10:47:35;101529.47;;;22.56;36.79
22241;BME280;11289;52.524;13.694;2022-07-06T10:50:02;101522.97;;;22.52;35.94
22241;BME280;11289;52.524;13.694;2022-07-06T10:53:03;101519.38;;;22.55;34.53
22241;BME280;11289;52.524;13.694;2022-07-06T10:55:37;101514.09;;;22.54;34.94
22241;BME280;11289;52.524;13.694;2022-07-06T10:58:04;101517.03;;;22.68;36.29
22241;BME280;11289;52.524;13.694;2022-07-06T11:00:56;101518.03;;;22.94;34.98
22241;BME280;11289;52.524;13.694;2022-07-06T11:06:01;101512.75;;;22.89;33.82
22241;BME280;11289;52.524;13.694;2022-07-06T11:14:08;101510.56;;;23.30;33.70
22241;BME280;11289;52.524;13.694;2022-07-06T11:16:37;101515.91;;;23.46;34.06
22241;BME280;11289;52.524;13.694;2022-07-06T11:21:51;101504.34;;;24.13;32.68
22241;BME280;11289;52.524;13.694;2022-07-06T11:24:19;101502.78;;;24.62;33.09
22241;BME280;11289;52.524;13.694;2022-07-06T11:26:47;101493.69;;;25.29;31.31
22241;BME280;11289;52.524;13.694;2022-07-06T11:29:14;101496.44;;;25.54;29.94
22241;BME280;11289;52.524;13.694;2022-07-06T11:31:42;101494.38;;;25.54;30.29
22241;BME280;11289;52.524;13.694;2022-07-06T11:34:10;101492.06;;;25.35;30.18
22241;BME280;11289;52.524;13.694;2022-07-06T11:36:36;101490.13;;;25.03;30.77
22241;BME280;11289;52.524;13.694;2022-07-06T11:39:02;101490.59;;;24.83;31.60
22241;BME280;11289;52.524;13.694;2022-07-06T11:41:27;101491.81;;;24.61;32.29
22241;BME280;11289;52.524;13.694;2022-07-06T11:43:53;101487.75;;;24.29;32.42
22241;BME280;11289;52.524;13.694;2022-07-06T11:46:29;101493.41;;;24.08;32.99
22241;BME280;11289;52.524;13.694;2022-07-06T11:51:29;101479.84;;;23.43;33.66
22241;BME280;11289;52.524;13.694;2022-07-06T11:53:58;101479.66;;;23.07;34.24
22241;BME280;11289;52.524;13.694;2022-07-06T11:56:28;101493.34;;;22.87;34.72
22241;BME280;11289;52.524;13.694;2022-07-06T11:58:55;101494.88;;;22.81;34.98
22241;BME280;11289;52.524;13.694;2022-07-06T12:01:22;101498.00;;;22.65;35.45
22241;BME280;11289;52.524;13.694;2022-07-06T12:03:49;101503.22;;;22.56;35.52
22241;BME280;11289;52.524;13.694;2022-07-06T12:08:41;101485.28;;;22.97;36.19
22241;BME280;11289;52.524;13.694;2022-07-06T12:11:07;101480.56;;;23.19;35.16
22241;BME280;11289;52.524;13.694;2022-07-06T12:13:39;101486.34;;;23.47;34.64
22241;BME280;11289;52.524;13.694;2022-07-06T12:16:09;101481.13;;;23.57;34.71
22241;BME280;11289;52.524;13.694;2022-07-06T12:18:39;101472.63;;;23.57;35.02
22241;BME280;11289;52.524;13.694;2022-07-06T12:21:08;101486.75;;;23.50;34.40
22241;BME280;11289;52.524;13.694;2022-07-06T12:23:47;101476.69;;;23.56;35.55
22241;BME280;11289;52.524;13.694;2022-07-06T12:26:15;101480.44;;;24.10;35.30
22241;BME280;11289;52.524;13.694;2022-07-06T12:28:41;101478.00;;;24.77;34.48
22241;BME280;11289;52.524;13.694;2022-07-06T12:31:07;101467.69;;;25.37;32.33
22241;BME280;11289;52.524;13.694;2022-07-06T12:33:33;101472.41;;;25.66;30.97
22241;BME280;11289;52.524;13.694;2022-07-06T12:36:14;101472.75;;;25.79;31.52
22241;BME280;11289;52.524;13.694;2022-07-06T12:38:47;101469.47;;;25.84;30.69
22241;BME280;11289;52.524;13.694;2022-07-06T12:41:27;101466.53;;;25.95;30.71
22241;BME280;11289;52.524;13.694;2022-07-06T12:44:09;101468.97;;;25.96;30.80
22241;BME280;11289;52.524;13.694;2022-07-06T12:46:41;101467.03;;;25.82;30.76
22241;BME280;11289;52.524;13.694;2022-07-06T12:49:15;101474.06;;;25.60;30.78
22241;BME280;11289;52.524;13.694;2022-07-06T12:51:54;101473.19;;;25.70;31.26
22241;BME280;11289;52.524;13.694;2022-07-06T12:54:20;101467.44;;;25.84;31.00
22241;BME280;11289;52.524;13.694;2022-07-06T12:57:15;101473.06;;;25.92;30.81